Time;durP1;ratioP1;P1;durP2;ratioP2;P2;SDS_P1;SDS_P2;PMS_P1;PMS_P2;Temp;Humidity;BMP_temperature;BMP_pressure;BME280_temperature;BME280_humidity;BME280_pressure;Samples;Min_cycle;Max_cycle;Signal;HPM_P1;HPM_P2
2022/09/18 00:02:08;;;;;;;9.80;1.60;;;10.20;99.90;;;;;;5063754;28;20150;-45
2022/09/18 00:04:34;;;;;;;8.32;2.20;;;10.20;99.90;;;;;;5058879;28;20044;-48
2022/09/18 00:06:59;;;;;;;9.48;2.80;;;10.20;99.90;;;;;;5060526;28;20684;-46
2022/09/18 00:09:26;;;;;;;12.75;2.10;;;10.20;99.90;;;;;;5059856;28;20862;-45
2022/09/18 00:11:51;;;;;;;10.02;1.67;;;10.20;99.90;;;;;;5063859;28;20049;-47
2022/09/18 00:14:22;;;;;;;8.77;1.85;;;10.30;99.90;;;;;;5056366;28;20053;-46
2022/09/18 00:16:49;;;;;;;12.32;2.10;;;10.30;99.90;;;;;;5060850;28;20048;-47
2022/09/18 00:19:16;;;;;;;12.68;2.78;;;10.30;99.90;;;;;;5063476;28;20041;-46
2022/09/18 00:21:44;;;;;;;10.93;2.05;;;10.40;99.90;;;;;;5053539;28;20090;-45
2022/09/18 00:24:10;;;;;;;12.25;2.70;;;10.40;99.90;;;;;;5058073;28;20066;-47
2022/09/18 00:26:36;;;;;;;13.43;1.80;;;10.40;99.90;;;;;;5060989;28;20059;-45
2022/09/18 00:29:04;;;;;;;11.13;2.03;;;10.50;99.90;;;;;;5054174;28;20045;-46
2022/09/18 00:31:33;;;;;;;9.00;2.67;;;10.50;99.90;;;;;;5050243;28;20053;-45
2022/09/18 00:34:01;;;;;;;10.48;1.67;;;10.60;99.90;;;;;;5043829;28;20071;-45
2022/09/18 00:36:28;;;;;;;17.45;2.20;;;10.50;99.90;;;;;;5061007;28;20040;-46
2022/09/18 00:38:56;;;;;;;11.05;2.05;;;10.60;99.90;;;;;;5058211;28;20514;-47
2022/09/18 00:41:30;;;;;;;5.57;1.30;;;10.60;99.90;;;;;;5061529;28;20052;-45
2022/09/18 00:44:34;;;;;;;14.07;1.90;;;10.60;99.90;;;;;;5061168;28;20058;-46
2022/09/18 00:47:08;;;;;;;12.77;2.17;;;10.60;99.90;;;;;;5054109;28;20044;-46
2022/09/18 00:49:38;;;;;;;10.48;1.90;;;10.70;99.90;;;;;;5040129;28;20052;-47
2022/09/18 00:52:04;;;;;;;9.63;1.85;;;10.60;99.90;;;;;;5061547;28;20059;-45
2022/09/18 00:54:40;;;;;;;13.30;2.45;;;10.60;99.90;;;;;;5053848;28;20057;-47
2022/09/18 00:57:29;;;;;;;9.68;2.05;;;10.60;99.90;;;;;;5051892;28;20052;-46
2022/09/18 00:59:54;;;;;;;13.50;1.95;;;10.70;99.90;;;;;;5024142;28;20411;-45
2022/09/18 01:02:20;;;;;;;11.85;2.00;;;10.80;99.90;;;;;;5056891;28;20080;-46
2022/09/18 01:04:48;;;;;;;14.10;2.40;;;10.80;99.90;;;;;;5052061;28;20053;-45
2022/09/18 01:07:29;;;;;;;14.82;2.45;;;10.80;99.90;;;;;;5030147;28;20562;-48
2022/09/18 01:10:09;;;;;;;10.75;1.90;;;10.80;99.90;;;;;;5057649;28;20075;-46
2022/09/18 01:12:38;;;;;;;6.63;1.50;;;10.80;99.90;;;;;;5036847;28;20053;-46
2022/09/18 01:15:42;;;;;;;15.80;2.67;;;10.80;99.90;;;;;;5061755;28;20049;-49
2022/09/18 01:18:28;;;;;;;;;;;10.80;99.90;;;;;;5062115;28;20055;-46
2022/09/18 01:21:05;;;;;;;11.13;2.63;;;10.80;99.90;;;;;;5062118;28;19931;-45
2022/09/18 01:23:59;;;;;;;15.30;2.10;;;10.90;99.90;;;;;;5062540;28;20059;-46
2022/09/18 01:26:46;;;;;;;10.60;2.13;;;10.90;99.90;;;;;;5058078;28;20190;-45
2022/09/18 01:29:21;;;;;;;10.80;2.10;;;10.90;99.90;;;;;;5065743;28;20098;-46
2022/09/18 01:32:13;;;;;;;11.73;1.92;;;10.90;99.90;;;;;;5067806;28;20052;-47
2022/09/18 01:34:53;;;;;;;10.77;2.05;;;10.90;99.90;;;;;;5064391;28;20052;-48
2022/09/18 01:37:38;;;;;;;8.77;1.90;;;10.90;99.90;;;;;;5060916;28;20049;-46
2022/09/18 01:40:09;;;;;;;8.68;2.00;;;10.90;99.90;;;;;;5060306;28;20483;-47
2022/09/18 01:42:36;;;;;;;10.27;1.85;;;10.90;99.90;;;;;;5059931;28;20060;-47
2022/09/18 01:45:08;;;;;;;9.98;1.77;;;10.90;99.90;;;;;;5056750;28;20081;-46
2022/09/18 01:47:46;;;;;;;12.52;1.88;;;10.90;99.90;;;;;;5063486;28;20052;-47
2022/09/18 01:50:15;;;;;;;7.43;1.42;;;10.90;99.90;;;;;;5035624;28;20064;-47
2022/09/18 01:52:51;;;;;;;7.75;1.35;;;10.90;99.90;;;;;;5064835;28;20053;-46
2022/09/18 01:55:21;;;;;;;5.45;1.20;;;10.90;99.90;;;;;;5029169;28;20057;-47
2022/09/18 01:58:10;;;;;;;9.57;2.03;;;10.90;99.90;;;;;;5046757;28;20049;-46
2022/09/18 02:00:40;;;;;;;8.48;1.50;;;10.90;99.90;;;;;;5047187;28;20515;-48
2022/09/18 02:03:21;;;;;;;6.82;1.48;;;10.90;99.90;;;;;;5055326;28;20056;-45
2022/09/18 02:06:13;;;;;;;9.98;1.95;;;10.80;99.90;;;;;;5060168;28;20119;-45
2022/09/18 02:08:56;;;;;;;7.03;1.88;;;10.80;99.90;;;;;;5044937;28;20560;-45
2022/09/18 02:11:23;;;;;;;7.07;1.38;;;10.90;99.90;;;;;;5042590;28;20056;-45
2022/09/18 02:13:57;;;;;;;7.80;1.40;;;10.90;99.90;;;;;;5037959;28;20160;-46
2022/09/18 02:16:30;;;;;;;9.90;1.80;;;10.80;99.90;;;;;;5062601;28;20060;-46
2022/09/18 02:19:02;;;;;;;9.25;1.58;;;10.90;99.90;;;;;;5063668;28;20114;-46
2022/09/18 02:21:31;;;;;;;7.97;2.28;;;10.90;99.90;;;;;;5062386;28;20542;-47
2022/09/18 02:24:03;;;;;;;8.98;1.45;;;10.90;99.90;;;;;;5064222;28;20459;-47
2022/09/18 02:26:31;;;;;;;8.88;1.75;;;10.90;99.90;;;;;;5043219;28;20048;-47
2022/09/18 02:28:58;;;;;;;9.85;1.52;;;10.90;99.90;;;;;;5032156;28;20079;-46
2022/09/18 02:31:24;;;;;;;13.82;2.50;;;10.90;99.90;;;;;;5055083;28;20553;-47
2022/09/18 02:33:49;;;;;;;9.95;1.80;;;10.90;99.90;;;;;;5055323;28;20494;-46
2022/09/18 02:36:54;;;;;;;10.95;1.85;;;10.90;99.90;;;;;;5052081;28;20063;-45
2022/09/18 02:39:48;;;;;;;10.73;2.47;;;10.90;99.90;;;;;;5057226;28;20048;-45
2022/09/18 02:42:47;;;;;;;9.80;1.92;;;10.80;99.90;;;;;;5033124;28;20051;-46
2022/09/18 02:45:31;;;;;;;9.25;1.48;;;10.80;99.90;;;;;;5059999;28;20486;-50
2022/09/18 02:48:16;;;;;;;8.30;1.52;;;10.90;99.90;;;;;;5042479;28;20053;-46
2022/09/18 02:51:15;;;;;;;6.50;1.60;;;10.90;99.90;;;;;;5050807;28;20057;-45
2022/09/18 02:54:08;;;;;;;9.20;1.83;;;10.80;99.90;;;;;;5063999;28;20063;-48
2022/09/18 02:56:40;;;;;;;13.02;2.00;;;10.80;99.90;;;;;;5062450;28;20040;-47
2022/09/18 02:59:15;;;;;;;9.18;2.08;;;10.90;99.90;;;;;;5063894;28;20044;-46
2022/09/18 03:01:42;;;;;;;11.35;2.03;;;10.80;99.90;;;;;;5063149;28;20044;-45
2022/09/18 03:04:18;;;;;;;9.52;1.90;;;10.80;99.90;;;;;;5058534;28;20097;-46
2022/09/18 03:06:43;;;;;;;12.88;3.38;;;10.80;99.90;;;;;;5060796;28;20487;-45
2022/09/18 03:09:09;;;;;;;6.97;1.55;;;10.80;99.90;;;;;;5060791;28;20048;-46
2022/09/18 03:11:36;;;;;;;10.40;1.98;;;10.80;99.90;;;;;;5062699;28;20044;-46
2022/09/18 03:14:02;;;;;;;9.65;1.70;;;10.80;99.90;;;;;;5057431;28;20045;-47
2022/09/18 03:16:28;;;;;;;13.18;1.92;;;10.80;99.90;;;;;;5062302;28;20048;-45
2022/09/18 03:18:56;;;;;;;9.00;1.52;;;10.80;99.90;;;;;;5051981;28;20059;-46
2022/09/18 03:21:22;;;;;;;14.93;2.22;;;10.70;99.90;;;;;;5054827;28;20063;-50
2022/09/18 03:23:48;;;;;;;7.35;1.27;;;10.70;99.90;;;;;;5041627;28;20131;-45
2022/09/18 03:26:14;;;;;;;11.85;1.80;;;10.70;99.90;;;;;;5062371;28;20055;-46
2022/09/18 03:28:40;;;;;;;11.98;3.10;;;10.70;99.90;;;;;;5052713;28;20480;-46
2022/09/18 03:31:06;;;;;;;10.75;2.22;;;10.70;99.90;;;;;;5047375;28;20126;-46
2022/09/18 03:33:31;;;;;;;15.98;1.88;;;10.60;99.90;;;;;;5054835;28;20053;-46
2022/09/18 03:35:57;;;;;;;12.32;1.88;;;10.60;99.90;;;;;;5052941;28;20469;-47
2022/09/18 03:38:23;;;;;;;11.77;2.00;;;10.60;99.90;;;;;;5037218;28;20576;-45
2022/09/18 03:40:49;;;;;;;10.73;1.63;;;10.60;99.90;;;;;;5062059;28;20059;-46
2022/09/18 03:43:14;;;;;;;12.35;1.83;;;10.60;99.90;;;;;;5059908;28;20182;-46
2022/09/18 03:45:41;;;;;;;10.05;1.50;;;10.60;99.90;;;;;;5053575;28;20048;-47
2022/09/18 03:48:07;;;;;;;6.43;1.40;;;10.60;99.90;;;;;;5037803;28;20060;-46
2022/09/18 03:50:33;;;;;;;8.07;1.80;;;10.60;99.90;;;;;;5051973;28;20047;-47
2022/09/18 03:52:58;;;;;;;7.35;1.40;;;10.60;99.90;;;;;;5055636;28;20462;-45
2022/09/18 03:55:24;;;;;;;10.93;1.98;;;10.60;99.90;;;;;;5060884;28;20497;-47
2022/09/18 03:57:50;;;;;;;6.10;1.55;;;10.60;99.90;;;;;;5045673;28;20123;-45
2022/09/18 04:00:18;;;;;;;7.53;1.75;;;10.60;99.90;;;;;;5056999;28;20048;-47
2022/09/18 04:02:44;;;;;;;11.82;1.67;;;10.70;99.90;;;;;;5058592;28;20048;-46
2022/09/18 04:05:10;;;;;;;11.93;2.15;;;10.60;99.90;;;;;;5058117;28;20047;-45
2022/09/18 04:07:36;;;;;;;8.30;1.77;;;10.70;99.90;;;;;;5049970;28;20041;-53
2022/09/18 04:10:02;;;;;;;5.65;1.55;;;10.60;99.90;;;;;;5043851;28;20048;-47
2022/09/18 04:12:28;;;;;;;6.65;1.88;;;10.70;99.90;;;;;;5053801;28;20049;-46
2022/09/18 04:14:54;;;;;;;7.45;1.58;;;10.60;99.90;;;;;;5055684;28;20502;-46
2022/09/18 04:17:20;;;;;;;7.85;1.48;;;10.60;99.90;;;;;;5062615;28;20139;-46
2022/09/18 04:19:45;;;;;;;7.60;1.23;;;10.60;99.90;;;;;;5062036;28;20052;-46
2022/09/18 04:22:11;;;;;;;7.60;1.38;;;10.70;99.90;;;;;;5056485;28;20121;-45
2022/09/18 04:24:38;;;;;;;8.55;1.40;;;10.70;99.90;;;;;;5060672;28;20058;-47
2022/09/18 04:27:05;;;;;;;4.82;1.23;;;10.70;99.90;;;;;;5060549;28;20157;-48
2022/09/18 04:29:31;;;;;;;6.50;1.25;;;10.70;99.90;;;;;;5055129;28;20542;-47
2022/09/18 04:31:57;;;;;;;7.25;1.40;;;10.80;99.90;;;;;;5054735;28;20044;-46
2022/09/18 04:34:22;;;;;;;11.82;2.05;;;10.80;99.90;;;;;;5052301;28;20198;-51
2022/09/18 04:36:48;;;;;;;6.25;1.42;;;10.80;99.90;;;;;;5035678;28;20494;-47
2022/09/18 04:39:14;;;;;;;5.85;1.38;;;10.80;99.90;;;;;;5061808;28;20049;-47
2022/09/18 04:41:40;;;;;;;6.53;1.00;;;10.70;99.90;;;;;;5048768;28;20074;-47
2022/09/18 04:44:06;;;;;;;4.25;1.08;;;10.70;99.90;;;;;;5039811;28;20182;-46
2022/09/18 04:46:32;;;;;;;4.68;1.92;;;10.70;99.90;;;;;;5054473;28;20049;-46
2022/09/18 04:48:58;;;;;;;6.53;1.20;;;10.70;99.90;;;;;;5061776;28;20052;-47
2022/09/18 04:51:24;;;;;;;9.80;1.40;;;10.60;99.90;;;;;;5042128;28;20052;-46
2022/09/18 04:53:49;;;;;;;4.80;0.90;;;10.60;99.90;;;;;;5053227;28;20048;-46
2022/09/18 04:56:15;;;;;;;5.47;1.20;;;10.60;99.90;;;;;;5055069;28;20055;-46
2022/09/18 04:58:41;;;;;;;4.18;1.73;;;10.50;99.90;;;;;;5058822;28;20630;-45
2022/09/18 05:01:07;;;;;;;3.95;1.33;;;10.50;99.90;;;;;;5052696;28;20056;-47
2022/09/18 05:03:33;;;;;;;8.07;1.20;;;10.50;99.90;;;;;;5056365;28;20040;-46
2022/09/18 05:05:58;;;;;;;4.68;1.20;;;10.50;99.90;;;;;;5045308;28;20056;-47
2022/09/18 05:08:24;;;;;;;5.85;1.73;;;10.50;99.90;;;;;;5065010;28;20470;-45
2022/09/18 05:10:50;;;;;;;5.28;0.98;;;10.50;99.90;;;;;;5032385;28;20072;-45
2022/09/18 05:13:16;;;;;;;3.90;1.05;;;10.50;99.90;;;;;;5064249;28;20067;-45
2022/09/18 05:15:43;;;;;;;7.65;1.50;;;10.50;99.90;;;;;;5052275;28;20040;-47
2022/09/18 05:18:11;;;;;;;5.72;1.27;;;10.50;99.90;;;;;;5047055;28;20049;-48
2022/09/18 05:20:36;;;;;;;7.13;1.52;;;10.50;99.90;;;;;;5042152;28;20167;-46
2022/09/18 05:23:02;;;;;;;5.60;1.00;;;10.50;99.90;;;;;;5067024;28;20522;-47
2022/09/18 05:25:29;;;;;;;5.10;1.38;;;10.50;99.90;;;;;;5058108;28;20459;-46
2022/09/18 05:28:00;;;;;;;9.73;1.20;;;10.50;99.90;;;;;;5053208;28;20052;-46
2022/09/18 05:30:26;;;;;;;5.63;1.60;;;10.50;99.90;;;;;;5037005;28;20068;-45
2022/09/18 05:33:03;;;;;;;6.82;1.20;;;10.50;99.90;;;;;;5057997;28;20131;-46
2022/09/18 05:35:31;;;;;;;5.82;1.10;;;10.60;99.90;;;;;;5056581;28;20045;-46
2022/09/18 05:37:58;;;;;;;11.27;1.58;;;10.60;99.90;;;;;;5063024;28;20063;-46
2022/09/18 05:40:31;;;;;;;7.63;1.73;;;10.60;99.90;;;;;;5049746;28;20048;-50
2022/09/18 05:42:57;;;;;;;5.35;1.60;;;10.60;99.90;;;;;;5064318;28;20159;-48
2022/09/18 05:45:23;;;;;;;7.68;1.02;;;10.70;99.90;;;;;;5065321;28;20109;-46
2022/09/18 05:48:01;;;;;;;7.25;1.52;;;10.60;99.90;;;;;;5063378;28;20036;-47
2022/09/18 05:50:28;;;;;;;6.55;1.38;;;10.60;99.90;;;;;;5065993;28;20478;-47
2022/09/18 05:53:05;;;;;;;4.53;2.03;;;10.70;99.90;;;;;;5061233;28;20122;-46
2022/09/18 05:55:31;;;;;;;7.55;1.52;;;10.70;99.90;;;;;;5052085;28;20358;-47
2022/09/18 05:57:58;;;;;;;9.55;1.95;;;10.70;99.90;;;;;;5051023;28;20441;-47
2022/09/18 06:00:26;;;;;;;10.43;1.50;;;10.70;99.90;;;;;;5046513;28;20106;-46
2022/09/18 06:02:57;;;;;;;5.72;1.30;;;10.70;99.90;;;;;;5026944;28;20383;-48
2022/09/18 06:05:23;;;;;;;5.82;1.35;;;10.70;99.90;;;;;;5064187;28;20352;-47
2022/09/18 06:07:50;;;;;;;8.50;1.75;;;10.80;99.90;;;;;;5063320;28;20440;-48
2022/09/18 06:10:18;;;;;;;6.63;1.25;;;10.80;99.90;;;;;;5045140;28;20060;-47
2022/09/18 06:12:44;;;;;;;11.25;1.50;;;10.80;99.90;;;;;;5026085;28;20053;-47
2022/09/18 06:15:10;;;;;;;5.65;1.20;;;10.80;99.90;;;;;;5053580;28;20047;-46
2022/09/18 06:17:36;;;;;;;7.10;1.70;;;10.80;99.90;;;;;;5061947;28;20052;-47
2022/09/18 06:20:02;;;;;;;9.15;1.92;;;10.80;99.90;;;;;;5064422;28;20120;-47
2022/09/18 06:22:29;;;;;;;5.82;1.60;;;10.80;99.90;;;;;;5060664;28;20057;-46
2022/09/18 06:24:55;;;;;;;7.10;1.30;;;10.80;99.90;;;;;;5060562;28;20056;-47
2022/09/18 06:27:21;;;;;;;7.85;1.42;;;10.80;99.90;;;;;;5063711;28;20071;-46
2022/09/18 06:29:46;;;;;;;9.10;1.60;;;10.80;99.90;;;;;;5059636;28;20426;-48
2022/09/18 06:32:12;;;;;;;5.10;1.20;;;10.80;99.90;;;;;;5031643;28;20053;-47
2022/09/18 06:34:38;;;;;;;7.30;1.95;;;10.90;99.90;;;;;;5039475;28;20133;-46
2022/09/18 06:37:03;;;;;;;6.85;1.35;;;10.90;99.90;;;;;;5041639;28;20059;-47
2022/09/18 06:39:29;;;;;;;9.00;1.52;;;10.80;99.90;;;;;;5067600;28;20071;-47
2022/09/18 06:41:55;;;;;;;6.68;1.40;;;10.90;99.90;;;;;;5050469;28;20040;-47
2022/09/18 06:44:20;;;;;;;9.45;1.95;;;10.90;99.90;;;;;;5057183;28;20840;-50
2022/09/18 06:46:46;;;;;;;11.18;1.67;;;10.90;99.90;;;;;;5062621;28;20351;-47
2022/09/18 06:49:12;;;;;;;9.98;2.38;;;11.00;99.90;;;;;;5060411;28;20378;-47
2022/09/18 06:51:39;;;;;;;9.23;1.77;;;11.00;99.90;;;;;;5061469;28;20441;-46
2022/09/18 06:54:05;;;;;;;10.18;1.60;;;11.00;99.90;;;;;;5059486;28;20053;-47
2022/09/18 06:56:30;;;;;;;7.68;1.98;;;11.10;99.90;;;;;;5051940;28;20461;-47
2022/09/18 06:58:56;;;;;;;8.43;2.03;;;11.00;99.90;;;;;;5046803;28;20183;-46
2022/09/18 07:01:22;;;;;;;12.90;1.48;;;11.10;99.90;;;;;;5054144;28;20123;-47
2022/09/18 07:03:48;;;;;;;11.93;1.63;;;11.00;99.90;;;;;;5062441;28;20479;-47
2022/09/18 07:06:14;;;;;;;6.78;2.08;;;11.10;99.90;;;;;;5058518;28;20048;-47
2022/09/18 07:08:40;;;;;;;6.97;1.40;;;11.00;99.90;;;;;;5037988;28;20049;-47
2022/09/18 07:11:06;;;;;;;7.03;1.17;;;11.00;99.90;;;;;;5037043;28;20071;-47
2022/09/18 07:13:33;;;;;;;9.07;1.08;;;11.00;99.90;;;;;;5039879;28;20094;-47
2022/09/18 07:15:59;;;;;;;9.10;1.45;;;10.90;99.90;;;;;;5056553;28;20049;-46
2022/09/18 07:18:25;;;;;;;4.63;1.10;;;10.90;99.90;;;;;;5057042;28;20048;-48
2022/09/18 07:20:52;;;;;;;5.40;1.10;;;10.90;99.90;;;;;;5060743;28;20497;-47
2022/09/18 07:23:18;;;;;;;5.88;1.60;;;10.90;99.90;;;;;;5061456;28;20131;-47
2022/09/18 07:25:45;;;;;;;3.42;1.50;;;10.80;99.90;;;;;;5061889;28;20063;-47
2022/09/18 07:28:11;;;;;;;6.88;1.30;;;10.80;99.90;;;;;;5061946;28;20048;-47
2022/09/18 07:30:38;;;;;;;4.22;1.23;;;10.80;99.90;;;;;;5060815;28;20036;-48
2022/09/18 07:33:06;;;;;;;5.95;1.10;;;10.70;99.90;;;;;;5061769;28;20545;-48
2022/09/18 07:35:32;;;;;;;7.32;1.95;;;10.70;99.90;;;;;;5060652;28;20566;-48
2022/09/18 07:38:04;;;;;;;4.80;1.25;;;10.70;99.90;;;;;;5053011;28;20052;-48
2022/09/18 07:40:30;;;;;;;6.53;1.13;;;10.60;99.90;;;;;;5044849;28;20095;-48
2022/09/18 07:43:01;;;;;;;4.13;0.98;;;10.60;99.90;;;;;;5057224;28;20074;-47
2022/09/18 07:45:27;;;;;;;4.85;1.10;;;10.60;99.90;;;;;;5060870;28;20860;-49
2022/09/18 07:47:54;;;;;;;5.32;1.02;;;10.60;99.90;;;;;;5062032;28;20048;-47
2022/09/18 07:50:24;;;;;;;5.57;1.20;;;10.60;99.90;;;;;;5044057;28;20087;-46
2022/09/18 07:52:56;;;;;;;3.60;1.30;;;10.60;99.90;;;;;;5043669;28;20087;-48
2022/09/18 07:55:23;;;;;;;6.22;1.02;;;10.70;99.90;;;;;;5045432;28;20059;-47
2022/09/18 07:57:57;;;;;;;4.10;1.13;;;10.70;99.90;;;;;;5060161;28;20059;-47
2022/09/18 08:00:24;;;;;;;5.40;1.10;;;10.70;99.90;;;;;;5060545;28;20060;-48
2022/09/18 08:02:51;;;;;;;8.07;1.23;;;10.80;99.90;;;;;;5053900;28;20733;-46
2022/09/18 08:05:16;;;;;;;4.45;1.38;;;10.80;99.90;;;;;;5060798;28;20056;-48
2022/09/18 08:07:43;;;;;;;7.70;1.48;;;10.70;99.90;;;;;;5039023;28;20097;-47
2022/09/18 08:10:10;;;;;;;4.43;1.38;;;10.90;99.90;;;;;;5054769;28;20516;-46
2022/09/18 08:12:36;;;;;;;6.45;2.17;;;10.90;99.90;;;;;;5068506;28;20099;-46
2022/09/18 08:15:03;;;;;;;8.93;1.40;;;11.00;99.90;;;;;;5029802;28;20052;-47
2022/09/18 08:17:29;;;;;;;8.68;1.00;;;11.00;99.90;;;;;;5049284;28;20073;-51
2022/09/18 08:19:54;;;;;;;8.40;1.50;;;11.10;99.90;;;;;;5049272;28;20139;-47
2022/09/18 08:22:20;;;;;;;8.85;1.83;;;11.20;99.90;;;;;;5050840;28;20057;-46
2022/09/18 08:24:46;;;;;;;6.28;1.48;;;11.20;99.90;;;;;;5053627;28;20049;-48
2022/09/18 08:27:17;;;;;;;6.60;1.40;;;11.20;99.90;;;;;;5045882;28;20060;-49
2022/09/18 08:29:42;;;;;;;10.73;1.88;;;11.30;99.90;;;;;;5048688;28;20089;-53
2022/09/18 08:32:08;;;;;;;5.30;1.20;;;11.30;99.90;;;;;;5046226;28;20489;-47
2022/09/18 08:34:34;;;;;;;5.30;1.23;;;11.30;99.90;;;;;;5045619;28;20552;-47
2022/09/18 08:36:59;;;;;;;9.25;1.88;;;11.30;99.90;;;;;;5038827;28;20491;-47
2022/09/18 08:39:25;;;;;;;11.23;1.88;;;11.30;99.90;;;;;;5053432;28;20052;-48
2022/09/18 08:41:57;;;;;;;7.55;1.50;;;11.40;99.90;;;;;;5059905;28;20121;-48
2022/09/18 08:44:27;;;;;;;7.32;1.30;;;11.40;99.90;;;;;;5060549;28;20095;-47
2022/09/18 08:47:02;;;;;;;5.35;1.85;;;11.50;99.90;;;;;;5039059;28;20052;-48
2022/09/18 08:49:43;;;;;;;8.65;1.48;;;11.50;99.90;;;;;;5051645;28;20041;-48
2022/09/18 08:52:18;;;;;;;10.23;1.42;;;11.50;99.90;;;;;;5060317;28;20044;-49
2022/09/18 08:54:58;;;;;;;6.68;1.52;;;11.50;99.90;;;;;;5059457;28;20044;-47
2022/09/18 08:57:45;;;;;;;9.05;1.48;;;11.50;99.90;;;;;;5055973;28;20053;-47
2022/09/18 09:00:55;;;;;;;7.65;1.80;;;11.60;99.90;;;;;;5059669;28;20095;-46
2022/09/18 09:03:56;;;;;;;11.40;1.63;;;11.60;99.90;;;;;;4958186;28;20176;-47
2022/09/18 09:06:40;;;;;;;12.18;1.95;;;11.70;99.90;;;;;;4955328;28;20055;-49
2022/09/18 09:09:48;;;;;;;9.20;1.67;;;11.80;99.90;;;;;;4959790;28;20047;-48
2022/09/18 09:12:31;;;;;;;7.25;1.50;;;11.80;99.90;;;;;;4963134;28;20073;-50
2022/09/18 09:15:00;;;;;;;;;;;11.90;99.90;;;;;;4958958;28;20061;-53
2022/09/18 09:17:39;;;;;;;9.02;1.35;;;11.90;99.90;;;;;;4956603;28;20044;-47
2022/09/18 09:20:55;;;;;;;5.88;1.25;;;12.00;99.90;;;;;;4950847;28;20138;-52
2022/09/18 09:23:24;;;;;;;6.47;1.17;;;12.10;99.90;;;;;;4890955;29;20056;-46
2022/09/18 09:26:01;;;;;;;5.68;1.08;;;12.10;99.90;;;;;;4900557;29;20060;-48
2022/09/18 09:29:27;;;;;;;8.40;2.45;;;12.10;99.90;;;;;;4901006;29;20068;-48
2022/09/18 09:32:19;;;;;;;7.00;1.50;;;12.10;99.90;;;;;;4883063;29;20132;-48
2022/09/18 09:34:53;;;;;;;6.40;0.90;;;12.00;99.90;;;;;;4872563;29;20124;-47
2022/09/18 09:37:23;;;;;;;3.05;0.70;;;12.00;99.90;;;;;;4898077;29;20586;-48
2022/09/18 09:40:01;;;;;;;5.28;1.60;;;11.90;99.90;;;;;;4918316;29;20062;-46
2022/09/18 09:42:37;;;;;;;5.80;1.00;;;11.90;99.90;;;;;;4922941;28;20063;-47
2022/09/18 09:45:16;;;;;;;9.38;1.48;;;11.90;99.90;;;;;;4925892;28;20547;-47
2022/09/18 09:47:44;;;;;;;10.50;1.73;;;11.90;99.90;;;;;;4945705;28;20599;-46
2022/09/18 09:50:35;;;;;;;5.70;1.15;;;11.90;99.90;;;;;;4964583;28;20192;-48
2022/09/18 09:53:05;;;;;;;8.73;1.40;;;11.80;99.90;;;;;;4951568;28;20975;-49
2022/09/18 09:55:44;;;;;;;7.40;1.13;;;11.80;99.90;;;;;;4992967;28;20598;-51
2022/09/18 09:58:35;;;;;;;7.22;1.30;;;11.70;99.90;;;;;;4991649;28;20057;-46
2022/09/18 10:01:18;;;;;;;6.57;1.42;;;11.80;99.90;;;;;;4992360;28;20116;-49
2022/09/18 10:04:25;;;;;;;4.97;1.58;;;11.70;99.90;;;;;;5046361;28;20130;-47
2022/09/18 10:07:08;;;;;;;8.27;1.55;;;11.80;99.90;;;;;;5054375;28;20388;-47
2022/09/18 10:09:39;;;;;;;5.13;1.45;;;11.70;99.90;;;;;;5055267;28;20079;-47
2022/09/18 10:12:23;;;;;;;6.75;1.75;;;11.60;99.90;;;;;;5055786;28;20071;-47
2022/09/18 10:14:51;;;;;;;9.60;1.77;;;11.60;99.90;;;;;;5053079;28;20438;-48
2022/09/18 10:17:19;;;;;;;8.00;1.70;;;11.70;99.90;;;;;;5064263;28;20148;-47
2022/09/18 10:19:46;;;;;;;7.93;1.45;;;11.60;99.90;;;;;;5062971;28;20098;-47
2022/09/18 10:22:16;;;;;;;10.85;1.67;;;11.60;99.90;;;;;;5049352;28;20373;-48
2022/09/18 10:25:00;;;;;;;8.68;2.05;;;11.50;99.90;;;;;;5049046;28;20380;-47
2022/09/18 10:27:26;;;;;;;10.73;1.98;;;11.50;99.90;;;;;;5041866;28;20528;-46
2022/09/18 10:29:53;;;;;;;9.65;1.95;;;11.50;99.90;;;;;;5052303;28;20063;-46
2022/09/18 10:32:36;;;;;;;12.50;1.95;;;11.50;99.90;;;;;;5054607;28;20048;-47
2022/09/18 10:35:28;;;;;;;9.73;2.10;;;11.60;99.90;;;;;;5062882;28;20044;-47
2022/09/18 10:37:55;;;;;;;7.30;1.70;;;11.60;99.90;;;;;;5032645;28;20061;-47
2022/09/18 10:40:28;;;;;;;11.63;1.60;;;11.60;99.90;;;;;;5061939;28;20044;-47
2022/09/18 10:42:55;;;;;;;9.32;2.05;;;11.70;99.90;;;;;;5060881;28;20479;-49
2022/09/18 10:45:24;;;;;;;8.52;1.95;;;11.80;99.90;;;;;;5062075;28;20123;-46
2022/09/18 10:48:00;;;;;;;10.88;2.20;;;11.90;99.90;;;;;;5063467;28;20097;-48
2022/09/18 10:50:26;;;;;;;9.48;1.75;;;12.00;99.90;;;;;;5063243;28;20541;-48
2022/09/18 10:52:52;;;;;;;7.55;1.27;;;12.00;99.90;;;;;;5061367;28;20131;-48
2022/09/18 10:55:28;;;;;;;8.38;2.03;;;12.10;99.90;;;;;;5061507;28;20045;-46
2022/09/18 10:57:53;;;;;;;9.38;1.90;;;12.10;99.90;;;;;;5062988;28;20045;-47
2022/09/18 11:00:19;;;;;;;8.43;1.73;;;12.20;99.90;;;;;;5065361;28;20075;-47
2022/09/18 11:02:58;;;;;;;13.05;1.90;;;12.20;99.90;;;;;;5061422;28;20045;-49
2022/09/18 11:05:36;;;;;;;4.15;1.33;;;12.20;99.90;;;;;;5059987;28;20061;-47
2022/09/18 11:08:14;;;;;;;8.15;1.73;;;12.20;99.90;;;;;;5059250;28;20059;-46
2022/09/18 11:10:45;;;;;;;7.75;2.28;;;12.30;99.90;;;;;;5040480;28;20273;-46
2022/09/18 11:13:23;;;;;;;6.80;2.17;;;12.40;99.90;;;;;;5057770;28;20059;-49
2022/09/18 11:15:56;;;;;;;10.85;1.60;;;12.40;99.90;;;;;;5042514;28;20052;-47
2022/09/18 11:18:25;;;;;;;10.15;1.98;;;12.60;99.90;;;;;;5063703;28;20861;-48
2022/09/18 11:20:54;;;;;;;10.77;1.83;;;12.60;99.90;;;;;;5044833;28;20048;-48
2022/09/18 11:23:32;;;;;;;10.73;2.22;;;12.70;99.90;;;;;;5054793;28;20555;-49
2022/09/18 11:26:27;;;;;;;11.27;2.15;;;12.80;99.90;;;;;;5054606;28;20056;-48
2022/09/18 11:29:19;;;;;;;9.68;1.98;;;12.90;99.90;;;;;;5063372;28;20806;-48
2022/09/18 11:31:50;;;;;;;7.18;1.75;;;13.00;99.90;;;;;;5052375;28;20045;-46
2022/09/18 11:34:38;;;;;;;9.45;1.80;;;13.10;99.90;;;;;;5062337;28;20106;-47
2022/09/18 11:37:22;;;;;;;10.77;2.38;;;13.10;99.90;;;;;;5063035;28;20376;-46
2022/09/18 11:39:56;;;;;;;16.40;3.00;;;13.20;99.90;;;;;;5042135;28;20063;-50
2022/09/18 11:42:22;;;;;;;9.75;1.85;;;13.20;99.90;;;;;;5063031;28;20079;-50
2022/09/18 11:44:50;;;;;;;11.43;2.85;;;13.20;99.90;;;;;;5062043;28;20797;-47
2022/09/18 11:47:31;;;;;;;11.55;2.30;;;13.20;99.90;;;;;;5057696;28;20396;-49
2022/09/18 11:50:23;;;;;;;12.20;2.53;;;13.30;99.90;;;;;;5062875;28;20049;-49
2022/09/18 11:52:58;;;;;;;14.20;1.88;;;13.30;99.90;;;;;;5041386;28;20056;-46
2022/09/18 11:55:30;;;;;;;6.82;1.42;;;13.30;99.90;;;;;;5062309;28;20545;-49
2022/09/18 11:58:01;;;;;;;7.13;1.80;;;13.30;99.90;;;;;;5032879;28;20494;-48
2022/09/18 12:00:35;;;;;;;7.25;2.25;;;13.30;99.90;;;;;;5050246;28;20105;-49
2022/09/18 12:03:17;;;;;;;8.73;1.80;;;13.30;99.90;;;;;;5061148;28;20115;-47
2022/09/18 12:06:20;;;;;;;11.95;2.40;;;13.20;99.90;;;;;;5060205;28;20040;-48
2022/09/18 12:09:22;;;;;;;19.08;2.50;;;13.20;99.90;;;;;;5039348;28;20230;-46
2022/09/18 12:12:04;;;;;;;8.82;2.05;;;12.90;99.90;;;;;;5050008;28;20048;-49
2022/09/18 12:14:54;;;;;;;7.13;1.55;;;12.40;99.90;;;;;;5061184;28;20428;-46
2022/09/18 12:17:42;;;;;;;7.18;1.25;;;12.20;99.90;;;;;;5024416;28;20053;-47
2022/09/18 12:20:20;;;;;;;10.68;1.60;;;12.10;99.90;;;;;;5054503;28;20049;-50
2022/09/18 12:22:52;;;;;;;7.05;1.70;;;12.10;99.90;;;;;;5027261;28;20049;-46
2022/09/18 12:25:22;;;;;;;7.55;1.63;;;12.10;99.90;;;;;;5033450;28;20092;-47
2022/09/18 12:27:56;;;;;;;10.70;2.40;;;12.20;99.90;;;;;;5041578;28;20082;-46
2022/09/18 12:30:33;;;;;;;8.73;1.83;;;12.20;99.90;;;;;;5038134;28;20164;-47
2022/09/18 12:33:04;;;;;;;8.13;1.95;;;12.30;99.90;;;;;;5033123;28;20055;-47
2022/09/18 12:35:58;;;;;;;8.65;1.88;;;12.30;99.90;;;;;;5033513;28;20122;-49
2022/09/18 12:38:39;;;;;;;;;;;12.40;99.90;;;;;;5042715;28;20486;-48
2022/09/18 12:41:35;;;;;;;9.90;1.90;;;12.50;99.90;;;;;;5038652;28;19928;-49
2022/09/18 12:44:16;;;;;;;9.05;1.92;;;12.60;99.90;;;;;;5041065;28;20048;-50
2022/09/18 12:46:57;;;;;;;8.43;1.75;;;12.60;99.90;;;;;;5040837;28;20049;-49
2022/09/18 12:49:42;;;;;;;8.20;2.55;;;12.60;99.90;;;;;;5042085;28;20578;-54
2022/09/18 12:52:33;;;;;;;6.72;1.83;;;12.70;99.90;;;;;;5041837;28;20087;-49
2022/09/18 12:55:27;;;;;;;7.22;2.22;;;12.60;99.90;;;;;;5041864;28;20484;-48
2022/09/18 12:58:39;;;;;;;7.15;1.80;;;12.70;99.90;;;;;;5041174;28;20505;-48
2022/09/18 13:01:21;;;;;;;7.25;1.60;;;12.60;99.90;;;;;;5042728;28;20144;-51
2022/09/18 13:03:49;;;;;;;11.05;2.20;;;12.60;99.90;;;;;;5033758;28;20052;-49
2022/09/18 13:06:19;;;;;;;10.02;2.08;;;12.60;99.90;;;;;;5039480;28;20091;-49
2022/09/18 13:08:58;;;;;;;14.55;3.40;;;12.50;99.90;;;;;;5042493;28;20056;-48
2022/09/18 13:11:32;;;;;;;9.52;2.17;;;12.40;99.90;;;;;;5039543;28;20057;-47
2022/09/18 13:14:42;;;;;;;6.03;1.88;;;12.40;99.90;;;;;;5042324;28;20052;-48
2022/09/18 13:17:16;;;;;;;9.90;1.73;;;12.30;99.90;;;;;;5033827;28;20447;-51